createdAt,value
2019-02-20T18:01:55.251Z,102111.78
2019-02-20T18:04:27.661Z,102113.14
2019-02-20T18:07:00.083Z,102114.55
2019-02-20T18:09:32.503Z,102121.20
2019-02-20T18:12:04.909Z,102122.08
2019-02-20T18:14:37.336Z,102120.70
2019-02-20T18:17:09.754Z,102126.98
2019-02-20T18:20:00.309Z,102126.94
2019-02-20T18:23:07.046Z,102127.39
2019-02-20T18:25:39.472Z,102132.30
2019-02-20T18:28:11.773Z,102134.05
2019-02-20T18:30:43.909Z,102127.38
2019-02-20T18:33:16.042Z,102129.60
2019-02-20T18:35:48.172Z,102122.55
2019-02-20T18:38:20.311Z,102126.94
2019-02-20T18:40:52.449Z,102129.11
2019-02-20T18:43:24.580Z,102134.50
2019-02-20T18:45:57.019Z,102127.84
2019-02-20T18:51:48.580Z,102134.94
2019-02-20T18:54:21.346Z,102141.02
2019-02-20T18:56:54.621Z,102142.30
2019-02-20T18:59:26.753Z,102145.35
2019-02-20T19:01:58.890Z,102147.58
2019-02-20T19:04:32.010Z,102154.23
2019-02-20T19:07:04.168Z,102162.19
2019-02-20T19:09:36.305Z,102164.05
2019-02-20T19:12:08.476Z,102168.02
2019-02-20T19:14:40.869Z,102162.25
2019-02-20T19:17:13.013Z,102165.34
2019-02-20T19:19:45.168Z,102164.02
2019-02-20T19:22:17.341Z,102167.58
2019-02-20T19:24:49.453Z,102169.42
2019-02-20T19:27:21.624Z,102163.16
2019-02-20T19:29:53.781Z,102169.44
2019-02-20T19:32:25.916Z,102165.48
2019-02-20T19:34:58.046Z,102164.16
2019-02-20T19:37:31.257Z,102169.47
2019-02-20T19:40:03.392Z,102173.44
2019-02-20T19:42:36.710Z,102178.74
2019-02-20T19:45:08.913Z,102180.49
2019-02-20T19:47:41.086Z,102180.08
2019-02-20T19:50:13.242Z,102180.09
2019-02-20T19:52:45.354Z,102184.06
2019-02-20T19:55:17.519Z,102188.06
2019-02-20T19:57:49.658Z,102185.39
2019-02-20T20:00:21.820Z,102186.28
2019-02-20T20:02:53.951Z,102186.70
2019-02-20T20:05:26.096Z,102178.73
2019-02-20T20:07:58.250Z,102181.82
2019-02-20T20:10:30.359Z,102184.06
2019-02-20T20:13:02.519Z,102188.94
2019-02-20T20:15:34.645Z,102182.31
2019-02-20T20:18:06.775Z,102180.52
2019-02-20T20:20:38.897Z,102180.52
2019-02-20T20:23:11.079Z,102176.09
2019-02-20T20:25:43.686Z,102175.12
2019-02-20T20:28:15.831Z,102162.11
2019-02-20T20:30:47.977Z,102162.11
2019-02-20T20:33:20.244Z,102165.25
2019-02-20T20:35:52.424Z,102169.61
2019-02-20T20:38:24.561Z,102163.91
2019-02-20T20:40:56.721Z,102167.88
2019-02-20T20:43:28.862Z,102164.28
2019-02-20T20:46:01.017Z,102166.03
2019-02-20T20:48:34.100Z,102165.98
2019-02-20T20:51:06.248Z,102162.95
2019-02-20T20:53:39.347Z,102163.84
2019-02-20T20:56:11.502Z,102168.19
2019-02-20T20:58:43.631Z,102166.95
2019-02-20T21:01:15.762Z,102169.53
2019-02-20T21:03:47.895Z,102165.53
2019-02-20T21:06:20.028Z,102172.18
2019-02-20T21:08:52.179Z,102173.53
2019-02-20T21:11:24.325Z,102165.42
2019-02-20T21:13:56.469Z,102165.98
2019-02-20T21:16:28.597Z,102165.00
2019-02-20T21:19:00.733Z,102168.13
2019-02-20T21:21:32.872Z,102164.61
2019-02-20T21:24:05.027Z,102171.29
2019-02-20T21:26:37.141Z,102168.67
2019-02-20T21:29:09.278Z,102164.64
2019-02-20T21:31:41.420Z,102173.92
2019-02-20T21:34:13.550Z,102167.70
2019-02-20T21:36:45.690Z,102174.74
2019-02-20T21:39:18.794Z,102174.72
2019-02-20T21:41:50.942Z,102180.91
2019-02-20T21:44:23.075Z,102178.72
2019-02-20T21:46:55.213Z,102172.86
2019-02-20T21:49:27.349Z,102175.02
2019-02-20T21:51:59.487Z,102172.31
2019-02-20T21:54:31.627Z,102175.38
2019-02-20T21:57:03.764Z,102169.59
2019-02-20T21:59:39.080Z,102173.53
2019-02-20T22:02:09.720Z,102177.82
2019-02-20T22:04:41.859Z,102172.45
2019-02-20T22:07:13.981Z,102173.80
2019-02-20T22:09:46.136Z,102166.33
2019-02-20T22:12:18.262Z,102171.08
2019-02-20T22:14:50.405Z,102170.54
2019-02-20T22:17:22.546Z,102171.95
2019-02-20T22:19:54.682Z,102177.65
2019-02-20T22:22:26.836Z,102186.41
2019-02-20T22:24:58.978Z,102186.79
2019-02-20T22:27:31.129Z,102196.05
2019-02-20T22:30:03.269Z,102192.92
2019-02-20T22:32:35.403Z,102197.70
2019-02-20T22:35:07.541Z,102196.35
2019-02-20T22:37:39.681Z,102197.64
2019-02-20T22:40:12.897Z,102198.66
2019-02-20T22:42:45.023Z,102202.19
2019-02-20T22:45:17.165Z,102197.76
2019-02-20T22:47:49.300Z,102193.78
2019-02-20T22:50:21.488Z,102201.67
2019-02-20T22:52:53.712Z,102205.65
2019-02-20T22:55:25.856Z,102207.25
2019-02-20T22:57:57.998Z,102210.30
2019-02-20T23:00:34.636Z,102213.81
2019-02-20T23:03:05.596Z,102214.21
2019-02-20T23:05:37.744Z,102215.08
2019-02-20T23:08:09.877Z,102217.66
2019-02-20T23:10:42.079Z,102220.30
2019-02-20T23:13:15.193Z,102217.13
2019-02-20T23:15:47.322Z,102219.77
2019-02-20T23:18:19.463Z,102206.08
2019-02-20T23:20:51.601Z,102206.08
2019-02-20T23:23:23.734Z,102209.15
2019-02-20T23:25:55.875Z,102212.19
2019-02-20T23:28:28.019Z,102216.52
2019-02-20T23:31:00.152Z,102226.25
2019-02-20T23:33:32.289Z,102225.39
2019-02-20T23:36:04.415Z,102221.31
2019-02-20T23:38:36.549Z,102213.84
2019-02-20T23:41:08.695Z,102211.62
2019-02-20T23:43:40.837Z,102217.73
2019-02-20T23:46:12.973Z,102215.95
2019-02-20T23:48:45.119Z,102223.81
2019-02-20T23:51:17.268Z,102229.53
2019-02-20T23:53:49.395Z,102225.14
2019-02-20T23:56:21.791Z,102224.64
2019-02-20T23:58:53.932Z,102228.10
